Nicolás Espinosa

Olheiro - Valencia
25 Nov 2027
Quinta-feira
Processo

Personalidade

Adaptabilidade (14) Ambição (10) Controvérsia (17) Lealdade (12) Pressão (1) Profissionalismo (4) Espírito Esportivo (8) Temperamento (20)

Perfil

Estilo de Treinamento Democrático
Licença Continental Pro
Determinação 10
Gestão de Pessoas 10
Motivação 7
Disciplina 14
Satisfação no Trabalho
100%
Fadiga
0%
Função Olheiro
Salário 43.3K p/s
Contrato 14.03.2030

Desempenho

Comportamento Bom
Eficácia do Treinamento
48%
Desenvolvimento do Jogador
65%
Prevenção de Lesões
65%
Implementação Tática
30%

Eventos Recentes

Participou de uma reunião de recrutamento 7d atrás
Participou de uma reunião de recrutamento 14d atrás
Observou uma partida 14d atrás
Participou de uma reunião de recrutamento 21d atrás
Observou uma partida 21d atrás
Participou de uma reunião de recrutamento 28d atrás
Observou uma partida 28d atrás
Observou uma partida 35d atrás

Monitorando agora

59
Jogador Clube Status Habilidade Confiança Observado Última observação Último voto
Javi Ontiveros Cádiz Perdido 129 / 127 79% 1 01.06.2027 -
Lucas Høgsberg RC Strasbourg Ativo 135 / 136 40% 4 30.05.2027 -
Matías Gómez Granada Ativo 108 / 128 40% 5 30.05.2027 -
Khalis Merah Toulouse FC Ativo 126 / 130 40% 3 30.05.2027 -
Pierre Kalulu Juventus Ativo 159 / 151 40% 1 28.05.2027 -
José Ángel Carmona Sevilla Ativo 149 / 155 40% 1 28.05.2027 -
Ousmane Diomande Nottingham Forest Ativo 149 / 153 40% 1 28.05.2027 -
Wesley Fofana Chelsea Ativo 167 / 165 40% 3 27.05.2027 -
Aitor Paredes Athletic Bilbao Ativo 153 / 147 40% 1 27.05.2027 -
Nuno Tavares Lazio Ativo 147 / 139 40% 1 27.05.2027 -
Jofre Torrents Ajax Ativo 124 / 125 40% 2 22.05.2027 -
Josh King Chelsea Ativo 138 / 140 40% 1 22.05.2027 -
João Teixeira Porto Ativo 106 / 110 40% 3 20.05.2027 -
Riley Owen Trento Ativo 104 / 104 40% 2 20.05.2027 -
Adrien Truffert Bournemouth Ativo 153 / 144 40% 3 17.05.2027 -
James Garner Everton Ativo 153 / 146 40% 1 17.05.2027 -
Florentino Luís Ipswich Town Ativo 141 / 134 40% 1 17.05.2027 -
Juanlu Bournemouth Ativo 151 / 150 40% 2 15.05.2027 -
Gavi Barcelona Ativo 163 / 161 40% 1 15.05.2027 -
Alessandro Buongiorno Sassuolo Ativo 153 / 154 40% 1 14.05.2027 -
Javi Rodríguez Celta Ativo 144 / 152 40% 1 14.05.2027 -
Izan Merino Málaga Perdido 127 / 128 40% 2 11.05.2027 -
Sascha Britschgi Padova Ativo 116 / 122 40% 2 11.05.2027 -
Finn Jeltsch VfB Stuttgart Ativo 133 / 140 40% 1 11.05.2027 -
Warren Zaïre-Emery Paris Saint-Germain Ativo 159 / 159 40% 4 10.05.2027 -
Caleb Yirenkyi Coventry City Ativo 131 / 139 40% 3 10.05.2027 -
Yusi Alavés Ativo 131 / 136 40% 3 09.05.2027 -
Ryan Sessegnon Fulham Ativo 142 / 146 40% 2 08.05.2027 -
Hector Ramirez Newcastle United Ativo 157 / 157 40% 1 08.05.2027 -
Jeremie Frimpong Liverpool Ativo 165 / 162 40% 1 08.05.2027 -
Jorrel Hato Chelsea Ativo 150 / 152 40% 2 07.05.2027 -
Jan Bürger Gillingham Ativo 114 / 113 40% 3 07.05.2027 -
David Valencia Alianza Petrolera Negociando 122 / 129 40% 1 07.05.2027 -
Juan Giménez Celta Ativo 110 / 130 40% 2 06.05.2027 -
João Simões Sporting CP Ativo 130 / 142 40% 2 01.05.2027 -
Ibrahim Maza Bayer Leverkusen Ativo 140 / 148 40% 2 28.04.2027 -
Omar El Hilali Espanyol Ativo 148 / 152 40% 2 27.04.2027 -
Óscar Mingueza Crystal Palace Ativo 153 / 154 40% 2 27.04.2027 -
Tiago Freitas Benfica Ativo 112 / 109 40% 1 25.04.2027 -
Noah Nartey Olympique Lyonnais Ativo 137 / 135 40% 1 23.04.2027 -
José Pachuca Puebla Ativo 106 / 110 40% 3 18.04.2027 -
Ernie Weaver AFC Wimbledon Ativo 110 / 116 40% 1 18.04.2027 -
Pablo Barrios Atlético Madrid Ativo 157 / 155 40% 2 17.04.2027 -
Johnny Cardoso Atlético Madrid Ativo 158 / 160 40% 2 17.04.2027 -
Tiago Santos LOSC Lille Ativo 143 / 144 40% 1 17.04.2027 -
Curtis Jones Inter Ativo 157 / 159 40% 2 16.04.2027 -
Fran García Betis Ativo 147 / 145 40% 1 16.04.2027 -
Matvey Kislyak CSKA Moscow Ativo 142 / 133 40% 1 15.04.2027 -
Jan Paul van Hecke Tottenham Ativo 157 / 151 40% 1 11.04.2027 -
Toni Tamarit Alverca Ativo 110 / 116 40% 2 05.04.2027 -
Davide Bartesaghi AC Milan Perdido 135 / 140 40% 1 01.04.2027 -
Christ Inao Oulaï Fiorentina Ativo 134 / 146 40% 1 30.03.2027 -
Dylan Lawlor Cardiff City Ativo 119 / 115 40% 1 26.03.2027 -
Willian Pacho Paris Saint-Germain Ativo 159 / 160 40% 2 25.03.2027 -
Amadou Onana Aston Villa Ativo 154 / 158 40% 2 25.03.2027 -
Aaron Hickey Brentford Ativo 140 / 141 40% 1 20.03.2027 -
Pedri Barcelona Ativo 181 / 180 40% 1 20.03.2027 -
Kevin Vazquez Cruz Azul Ativo 135 / 143 40% 1 17.03.2027 -
William Saliba Arsenal Ativo 171 / 183 40% 1 17.03.2027 -